Huvudsida
METAR-TAF:

METAR-TAF

Flygplatser :

Wellington International Airport

Wellington, Nya Zeeland

latitud: 41-20S, longitud: 174-48E, höjd: 12 m

Aktuellt väderrapport

Denna rapport gjordes för 27 minuter sedan, klockan 09:00 UTC
Vind 7 kt från syd
Temperatur 12°C
Fuktighet 88%
Tryck 1017 hPa
Sikt 10 km eller mer

METAR: NZWN 240900Z AUTO 19007KT 9999 OVC020/// 12/10 Q1017

Tid: 21:27 (09:27 UTC)

Väderprognos

Denna rapport gjordes för 1 timme och 13 minuter sedan, klockan 08:14 UTC
Prognos gäller från 24 kl. 09 UTC till 25 kl. 12 UTC
Vind 5 kt från syd
Sikt 10 km eller mer
Brutna moln på en höjd av 2000 ft
Temporärt
från 24 kl. 10 UTC till 24 kl. 19 UTC
Brutna moln på en höjd av 800 ft
Blir
från 24 kl. 23 UTC till 25 kl. 01 UTC
Vind 15 kt från syd
Temporärt
från 25 kl. 01 UTC till 25 kl. 11 UTC
Sikt: 5000 m
Brutna moln på en höjd av 1200 ft
regn,

TAF: NZWN 240814Z 2409/2512 18005KT 9999 BKN020 TEMPO 2410/2419 BKN008 BECMG 2423/2501 17015KT TEMPO 2501/2511 5000 RA BKN012

Aktuella väderrapporter och prognoser från 4000 flygplatser (METAR- och TAF-rapporter).

De tillgängliga stationerna syns som gula och röda prickar på kartan.

För musen över prickarna för att se namnen på stationerna.

Klicka sedan för att få väderrapporter och prognoser.

För att ändra kartan: Klicka på de gröna knapparna med ett svart kors på för att zooma in; den gröna knappen med ett streck på för att zooma ut; eller på de gröna pilarna för angränsande kartor.


METAR-TAF: